LBWN Airport Information

Runway Information
Runway 09 Length 8202 ft width 180 ft
Elevation 203 ft Threshold 0 ft Heading 97
Runway 27 Length 8202 ft Width 180 ft
Elevation 217 ft Threshold 0 ft Heading 277
Airport Frequencies
Type APP Name APP Frequency 121 MHZ
Type ATIS Name ATIS Frequency 118.075 MHZ
Type TWR Name TWR Frequency 119.5 MHZ
Airport Navaids
Type NDB Name Devnya Frequency 350 KHZ
Type NDB Name Varna Frequency 375 KHZ
Type NDB Name Varna Frequency 335 KHZ
Type NDB Name Varna Frequency 397 KHZ
Type NDB Name Varna Frequency 526 KHZ
Type VOR-DME Name Varna Frequency 112400 KHZ
Airport Weather Information & NOTAM
ADDS - METARS form results

(0202 UTC 23 January 2019)
Data provider http://aviationweather.gov/metar/data/
 
METAR text: LBWN 230200Z 13010KT 9999 OVC008 06/05 Q1007 TEMPO 5000 RA
Conditions at: LBWN (VARNA , BG) observed 0200 UTC 23 January 2019
Temperature: 6.0°C (43°F)
Dewpoint: 5.0°C (41°F) [RH = 93%]
Pressure (altimeter): 29.73 inches Hg (1007.0 mb)
Winds: from the SE (130 degrees) at 12 MPH (10 knots; 5.1 m/s)
Visibility: 6 or more miles (10+ km)
Ceiling: 800 feet AGL
Clouds: overcast cloud deck at 800 feet AGL
Weather: no significant weather observed at this time

METAR text: LBWN 230130Z 12009KT 9999 OVC009 06/05 Q1008 NOSIG
Conditions at: LBWN (VARNA , BG) observed 0130 UTC 23 January 2019
Temperature: 6.0°C (43°F)
Dewpoint: 5.0°C (41°F) [RH = 93%]
Pressure (altimeter): 29.76 inches Hg (1008.0 mb)
Winds: from the ESE (120 degrees) at 10 MPH (9 knots; 4.6 m/s)
Visibility: 6 or more miles (10+ km)
Ceiling: 900 feet AGL
Clouds: overcast cloud deck at 900 feet AGL
Weather: no significant weather observed at this time

Forecast for: LBWN (VARNA , BG)
Text: TAF LBWN 222300Z 2300/2324 12010KT 9999 SCT015 OVC030
Forecast period: 0000 UTC 23 January 2019 to 0000 UTC 24 January 2019
Forecast type: FROM: standard forecast or significant change
Winds: from the ESE (120 degrees) at 12 MPH (10 knots; 5.1 m/s)
Visibility: 6 or more miles 10+ km)
Ceiling: 3000 feet AGL
Clouds: scattered clouds at 1500 feet AGL
overcast cloud deck at 3000 feet AGL
Weather: no significant weather forecast for this period
Text: TEMPO 2302/2307 4000 RA BKN012 OVC025
Forecast period: 0200 to 0700 UTC 23 January 2019
Forecast type: TEMPORARY: The following changes expected for less than half the time period
Visibility: 2.49 miles (4.01 km)
Ceiling: 1200 feet AGL
Clouds: broken clouds at 1200 feet AGL
overcast cloud deck at 2500 feet AGL
Weather: RA  (moderate rain)
Text: TEMPO 2313/2319 5000 RA BKN012 OVC020
Forecast period: 1300 to 1900 UTC 23 January 2019
Forecast type: TEMPORARY: The following changes expected for less than half the time period
Visibility: 3 miles (5 km)
Ceiling: 1200 feet AGL
Clouds: broken clouds at 1200 feet AGL
overcast cloud deck at 2000 feet AGL
Weather: RA  (moderate rain)